createdAt,value
2017-09-28T00:00:11.000Z,101147.80
2017-09-28T00:02:38.470Z,101148.38
2017-09-28T00:05:05.957Z,101147.12
2017-09-28T00:07:33.424Z,101145.98
2017-09-28T00:10:00.908Z,101146.14
2017-09-28T00:12:28.424Z,101144.66
2017-09-28T00:14:55.917Z,101145.63
2017-09-28T00:17:23.377Z,101152.07
2017-09-28T00:19:50.877Z,101149.34
2017-09-28T00:22:18.352Z,101148.83
2017-09-28T00:24:45.820Z,101144.89
2017-09-28T00:27:13.299Z,101147.27
2017-09-28T00:29:40.759Z,101142.95
2017-09-28T00:32:08.260Z,101143.00
2017-09-28T00:34:35.732Z,101143.56
2017-09-28T00:37:03.246Z,101143.25
2017-09-28T00:39:30.713Z,101139.06
2017-09-28T00:41:58.219Z,101139.28
2017-09-28T00:44:25.685Z,101137.48
2017-09-28T00:46:53.138Z,101139.18
2017-09-28T00:49:20.611Z,101140.28
2017-09-28T00:51:48.064Z,101136.32
2017-09-28T00:54:15.653Z,101131.46
2017-09-28T00:56:43.108Z,101127.57
2017-09-28T00:59:10.588Z,101121.73
2017-09-28T01:01:38.025Z,101123.06
2017-09-28T01:04:05.485Z,101125.27
2017-09-28T01:06:32.933Z,101129.16
2017-09-28T01:09:00.370Z,101131.41
2017-09-28T01:11:27.846Z,101134.78
2017-09-28T01:13:55.286Z,101131.44
2017-09-28T01:16:22.750Z,101135.27
2017-09-28T01:18:50.214Z,101130.69
2017-09-28T01:21:17.676Z,101124.55
2017-09-28T01:23:45.124Z,101131.20
2017-09-28T01:26:12.631Z,101120.16
2017-09-28T01:28:40.084Z,101135.25
2017-09-28T01:31:07.525Z,101130.02
2017-09-28T01:33:35.090Z,101126.17
2017-09-28T01:36:02.538Z,101127.53
2017-09-28T01:38:30.002Z,101144.93
2017-09-28T01:40:57.457Z,101129.74
2017-09-28T01:43:24.922Z,101129.80
2017-09-28T01:45:52.374Z,101125.29
2017-09-28T01:48:19.833Z,101129.81
2017-09-28T01:50:47.295Z,101117.88
2017-09-28T01:53:14.766Z,101124.86
2017-09-28T01:55:42.255Z,101116.02
2017-09-28T01:58:09.733Z,101116.29
2017-09-28T02:00:37.172Z,101115.20
2017-09-28T02:03:04.651Z,101105.30
2017-09-28T02:05:32.094Z,101103.27
2017-09-28T02:07:59.569Z,101109.30
2017-09-28T02:10:27.042Z,101113.50
2017-09-28T02:12:54.515Z,101115.84
2017-09-28T02:15:21.957Z,101121.56
2017-09-28T02:17:49.399Z,101114.76
2017-09-28T02:20:16.888Z,101125.44
2017-09-28T02:22:44.334Z,101130.71
2017-09-28T02:25:11.797Z,101136.39
2017-09-28T02:27:39.251Z,101144.05
2017-09-28T02:30:06.790Z,101143.34
2017-09-28T02:32:34.247Z,101141.73
2017-09-28T02:35:01.738Z,101139.19
2017-09-28T02:37:29.176Z,101136.59
2017-09-28T02:39:56.624Z,101128.94
2017-09-28T02:42:24.119Z,101145.98
2017-09-28T02:44:51.558Z,101142.78
2017-09-28T02:47:19.025Z,101143.18
2017-09-28T02:49:46.547Z,101141.53
2017-09-28T02:52:14.009Z,101144.11
2017-09-28T02:54:41.448Z,101143.66
2017-09-28T02:57:09.024Z,101145.86
2017-09-28T02:59:36.466Z,101144.55
2017-09-28T03:02:03.946Z,101140.79
2017-09-28T03:04:31.393Z,101145.90
2017-09-28T03:06:58.951Z,101141.88
2017-09-28T03:09:26.397Z,101155.66
2017-09-28T03:11:53.864Z,101149.94
2017-09-28T03:14:21.429Z,101152.53
2017-09-28T03:16:48.910Z,101146.92
2017-09-28T03:19:16.383Z,101140.36
2017-09-28T03:21:43.839Z,101138.19
2017-09-28T03:24:11.321Z,101137.56
2017-09-28T03:26:38.762Z,101136.22
2017-09-28T03:29:06.227Z,101129.00
2017-09-28T03:31:33.721Z,101133.59
2017-09-28T03:34:01.181Z,101139.31
2017-09-28T03:36:28.630Z,101137.08
2017-09-28T03:38:56.182Z,101142.27
2017-09-28T03:41:23.629Z,101141.55
2017-09-28T03:43:51.106Z,101139.94
2017-09-28T03:46:18.564Z,101147.52
2017-09-28T03:48:46.005Z,101149.38
2017-09-28T03:51:13.469Z,101151.28
2017-09-28T03:53:40.914Z,101142.77
2017-09-28T03:56:08.388Z,101145.95
2017-09-28T03:58:35.829Z,101146.28
2017-09-28T04:01:03.293Z,101146.91
2017-09-28T04:03:30.765Z,101149.04
2017-09-28T04:05:58.241Z,101155.80
2017-09-28T04:08:25.686Z,101162.19
2017-09-28T04:10:53.133Z,101160.52
2017-09-28T04:13:20.607Z,101155.83
2017-09-28T04:15:48.084Z,101154.65
2017-09-28T04:18:15.552Z,101158.02
2017-09-28T04:20:42.994Z,101153.91
2017-09-28T04:23:10.506Z,101159.01
2017-09-28T04:25:37.949Z,101159.05
2017-09-28T04:28:05.415Z,101162.50
2017-09-28T04:30:32.873Z,101170.03
2017-09-28T04:33:00.343Z,101159.64
2017-09-28T04:35:27.789Z,101156.48
2017-09-28T04:37:55.345Z,101153.03
2017-09-28T04:40:22.802Z,101152.61
2017-09-28T04:42:50.362Z,101152.45
2017-09-28T04:45:17.829Z,101155.69
2017-09-28T04:47:45.277Z,101143.42
2017-09-28T04:50:12.841Z,101147.21
2017-09-28T04:52:40.393Z,101150.41
2017-09-28T04:55:07.950Z,101153.11
2017-09-28T04:57:35.406Z,101156.73
2017-09-28T05:00:02.884Z,101150.80
2017-09-28T05:02:30.341Z,101151.94
2017-09-28T05:04:57.836Z,101149.84
2017-09-28T05:07:25.298Z,101150.70
2017-09-28T05:09:52.770Z,101155.16
2017-09-28T05:12:20.227Z,101154.59
2017-09-28T05:14:47.693Z,101155.38
2017-09-28T05:17:15.189Z,101158.31
2017-09-28T05:19:42.637Z,101161.89
2017-09-28T05:22:10.138Z,101166.63
2017-09-28T05:24:37.598Z,101168.46
2017-09-28T05:27:05.080Z,101175.78
2017-09-28T05:29:32.606Z,101173.59
2017-09-28T05:32:00.082Z,101171.02
2017-09-28T05:34:27.537Z,101171.50
2017-09-28T05:36:55.016Z,101166.02
2017-09-28T05:39:22.477Z,101178.36
2017-09-28T05:41:49.930Z,101182.09
2017-09-28T05:44:17.395Z,101195.44
2017-09-28T05:46:44.861Z,101184.83
2017-09-28T05:49:12.329Z,101176.71
2017-09-28T05:51:39.778Z,101188.77
2017-09-28T05:54:07.238Z,101195.45
2017-09-28T05:56:34.682Z,101190.87
2017-09-28T05:59:02.240Z,101186.63
2017-09-28T06:01:29.692Z,101173.45
2017-09-28T06:03:57.207Z,101180.33
2017-09-28T06:06:24.653Z,101186.12
2017-09-28T06:08:52.144Z,101187.62
2017-09-28T06:11:19.599Z,101191.62
2017-09-28T06:13:47.077Z,101192.56
2017-09-28T06:16:14.636Z,101199.95
2017-09-28T06:18:42.108Z,101207.23
2017-09-28T06:21:09.662Z,101205.63
2017-09-28T06:23:37.125Z,101204.23
2017-09-28T06:26:04.657Z,101205.96
2017-09-28T06:28:32.124Z,101213.97
2017-09-28T06:30:59.573Z,101217.97
2017-09-28T06:33:27.019Z,101217.86
2017-09-28T06:35:54.650Z,101224.86
2017-09-28T06:38:22.089Z,101218.02
2017-09-28T06:40:49.563Z,101218.81
2017-09-28T06:43:17.015Z,101217.91
2017-09-28T06:45:44.490Z,101190.69
2017-09-28T06:48:11.934Z,101187.56
2017-09-28T06:50:39.447Z,101207.00
2017-09-28T06:53:07.001Z,101211.53
2017-09-28T06:55:34.478Z,101210.68
2017-09-28T06:58:01.921Z,101210.45
2017-09-28T07:00:29.401Z,101213.23
2017-09-28T07:02:56.843Z,101219.98
2017-09-28T07:05:24.372Z,101224.99
2017-09-28T07:07:51.828Z,101231.69
2017-09-28T07:10:19.492Z,101233.77
2017-09-28T07:12:46.966Z,101231.56
2017-09-28T07:15:14.429Z,101220.05
2017-09-28T07:17:41.882Z,101223.42
2017-09-28T07:20:09.363Z,101228.36
2017-09-28T07:22:36.813Z,101225.07
2017-09-28T07:25:04.333Z,101221.04
2017-09-28T07:27:31.778Z,101222.17
2017-09-28T07:29:59.222Z,101219.09
2017-09-28T07:32:26.695Z,101218.09
2017-09-28T07:34:54.143Z,101214.11
2017-09-28T07:37:21.617Z,101206.70
2017-09-28T07:39:49.057Z,101203.67
2017-09-28T07:42:16.530Z,101203.41
2017-09-28T07:44:43.987Z,101204.17
2017-09-28T07:47:11.472Z,101207.28
2017-09-28T07:49:38.924Z,101201.91
2017-09-28T07:52:06.382Z,101205.52
2017-09-28T07:54:33.841Z,101209.72
2017-09-28T07:57:01.640Z,101215.94
2017-09-28T07:59:34.816Z,101226.86
2017-09-28T08:02:02.261Z,101229.82
2017-09-28T08:04:29.782Z,101240.94
2017-09-28T08:06:57.269Z,101251.42
2017-09-28T08:09:24.814Z,101246.77
2017-09-28T08:11:52.262Z,101245.61
2017-09-28T08:14:19.754Z,101240.87
2017-09-28T08:16:47.193Z,101240.22
2017-09-28T08:19:14.741Z,101232.64
2017-09-28T08:21:42.206Z,101232.36
2017-09-28T08:24:10.835Z,101231.91
2017-09-28T08:26:38.796Z,101227.43
2017-09-28T08:29:06.293Z,101227.38
2017-09-28T08:31:33.765Z,101233.76
2017-09-28T08:34:01.206Z,101221.38
2017-09-28T08:36:28.665Z,101216.94
2017-09-28T08:38:56.137Z,101219.01
2017-09-28T08:41:23.683Z,101218.10
2017-09-28T08:43:51.331Z,101219.83
2017-09-28T08:46:19.715Z,101225.70
2017-09-28T08:48:47.174Z,101222.14
2017-09-28T08:51:14.680Z,101234.86
2017-09-28T08:53:42.190Z,101236.35
2017-09-28T08:56:09.641Z,101236.59
2017-09-28T08:58:37.198Z,101241.45
2017-09-28T09:01:04.654Z,101242.73
2017-09-28T09:03:32.140Z,101262.59
2017-09-28T09:05:59.578Z,101249.59
2017-09-28T09:08:27.070Z,101240.92
2017-09-28T09:10:54.534Z,101240.75
2017-09-28T09:13:22.056Z,101245.68
2017-09-28T09:15:49.500Z,101250.47
2017-09-28T09:18:16.975Z,101268.58
2017-09-28T09:20:44.448Z,101262.50
2017-09-28T09:23:11.882Z,101240.20
2017-09-28T09:25:39.355Z,101238.31
2017-09-28T09:28:06.809Z,101227.80
2017-09-28T09:30:34.279Z,101218.95
2017-09-28T09:33:01.752Z,101229.78
2017-09-28T09:35:29.268Z,101222.27
2017-09-28T09:37:56.712Z,101235.12
2017-09-28T09:40:24.198Z,101230.84
2017-09-28T09:42:51.661Z,101221.59
2017-09-28T09:45:19.141Z,101215.55
2017-09-28T09:47:46.588Z,101223.69
2017-09-28T09:50:14.069Z,101226.28
2017-09-28T09:52:41.514Z,101213.72
2017-09-28T09:55:09.010Z,101209.48
2017-09-28T09:57:36.580Z,101215.15
2017-09-28T10:00:04.532Z,101214.64
2017-09-28T10:02:31.997Z,101214.27
2017-09-28T10:04:59.448Z,101213.70
2017-09-28T10:07:43.664Z,101207.19
2017-09-28T10:10:14.246Z,101206.52
2017-09-28T10:12:43.932Z,101201.36
2017-09-28T10:15:16.780Z,101213.41
2017-09-28T10:17:44.251Z,101217.03
2017-09-28T10:20:11.701Z,101218.16
2017-09-28T10:22:39.165Z,101214.50
2017-09-28T10:25:06.617Z,101217.68
2017-09-28T10:27:34.114Z,101208.41
2017-09-28T10:30:01.710Z,101211.66
2017-09-28T10:32:29.583Z,101216.61
2017-09-28T10:34:57.614Z,101215.45
2017-09-28T10:37:25.133Z,101211.72
2017-09-28T10:39:52.668Z,101212.63
2017-09-28T10:42:20.118Z,101214.77
2017-09-28T10:44:47.600Z,101213.20
2017-09-28T10:47:15.065Z,101217.79
2017-09-28T10:49:42.533Z,101214.91
2017-09-28T10:52:09.977Z,101219.13
2017-09-28T10:54:37.452Z,101219.87
2017-09-28T10:57:04.908Z,101217.70
2017-09-28T10:59:32.386Z,101214.13
2017-09-28T11:01:59.848Z,101212.06
2017-09-28T11:04:27.365Z,101212.81
2017-09-28T11:06:54.850Z,101209.78
2017-09-28T11:09:22.424Z,101209.38
2017-09-28T11:11:49.901Z,101205.86
2017-09-28T11:14:17.416Z,101206.69
2017-09-28T11:16:44.884Z,101203.55
2017-09-28T11:19:12.448Z,101211.35
2017-09-28T11:21:39.990Z,101208.19
2017-09-28T11:24:07.438Z,101204.95
2017-09-28T11:26:34.905Z,101203.39
2017-09-28T11:29:02.818Z,101202.45
2017-09-28T11:31:30.294Z,101208.31
2017-09-28T11:33:57.742Z,101207.24
2017-09-28T11:36:25.205Z,101199.13
2017-09-28T11:38:52.663Z,101205.45
2017-09-28T11:41:20.120Z,101208.59
2017-09-28T11:43:47.612Z,101203.35
2017-09-28T11:46:15.054Z,101206.31
2017-09-28T11:48:42.518Z,101199.55
2017-09-28T11:51:09.971Z,101197.62
2017-09-28T11:53:37.444Z,101193.02
2017-09-28T11:56:04.961Z,101188.19
2017-09-28T11:58:32.430Z,101186.70
2017-09-28T12:00:59.878Z,101185.87
2017-09-28T12:03:27.363Z,101193.50
2017-09-28T12:05:54.831Z,101178.85
2017-09-28T12:08:22.297Z,101174.83
2017-09-28T12:10:49.793Z,101174.02
2017-09-28T12:13:17.266Z,101179.28
2017-09-28T12:15:44.723Z,101178.52
2017-09-28T12:18:12.225Z,101180.92
2017-09-28T12:20:39.683Z,101177.73
2017-09-28T12:23:07.176Z,101180.31
2017-09-28T12:25:34.630Z,101180.39
2017-09-28T12:28:02.125Z,101180.86
2017-09-28T12:30:29.694Z,101183.43
2017-09-28T12:32:57.133Z,101177.73
2017-09-28T12:35:24.768Z,101179.05
2017-09-28T12:37:52.268Z,101179.81
2017-09-28T12:40:19.737Z,101176.75
2017-09-28T12:42:47.182Z,101175.17
2017-09-28T12:45:14.695Z,101172.22
2017-09-28T12:47:43.164Z,101174.11
2017-09-28T12:50:26.986Z,101172.14
2017-09-28T12:52:54.452Z,101164.76
2017-09-28T12:55:27.533Z,101163.33
2017-09-28T12:57:55.078Z,101159.66
2017-09-28T13:00:22.546Z,101156.59
2017-09-28T13:02:50.074Z,101155.14
2017-09-28T13:05:18.954Z,101155.67
2017-09-28T13:07:46.423Z,101151.61
2017-09-28T13:10:13.941Z,101148.70
2017-09-28T13:12:41.444Z,101150.41
2017-09-28T13:15:08.889Z,101150.50
2017-09-28T13:17:36.449Z,101151.33
2017-09-28T13:20:04.270Z,101155.18
2017-09-28T13:22:31.787Z,101147.93
2017-09-28T13:24:59.231Z,101150.50
2017-09-28T13:27:26.714Z,101148.06
2017-09-28T13:29:57.543Z,101152.62
2017-09-28T13:32:25.091Z,101149.14
2017-09-28T13:34:52.558Z,101146.55
2017-09-28T13:37:20.029Z,101140.02
2017-09-28T13:39:47.476Z,101148.23
2017-09-28T13:42:15.029Z,101147.30
2017-09-28T13:44:42.474Z,101138.59
2017-09-28T13:47:09.946Z,101145.27
2017-09-28T13:49:37.502Z,101143.23
2017-09-28T13:52:04.980Z,101143.75
2017-09-28T13:54:32.557Z,101138.82
2017-09-28T13:57:00.120Z,101141.20
2017-09-28T13:59:27.623Z,101135.13
2017-09-28T14:01:55.102Z,101141.21
2017-09-28T14:04:22.572Z,101134.78
2017-09-28T14:06:50.082Z,101123.92
2017-09-28T14:09:17.547Z,101120.11
2017-09-28T14:11:44.996Z,101122.00
2017-09-28T14:14:12.467Z,101115.37
2017-09-28T14:16:40.026Z,101118.87
2017-09-28T14:19:07.583Z,101119.25
2017-09-28T14:21:35.029Z,101122.38
2017-09-28T14:24:02.502Z,101120.89
2017-09-28T14:26:29.954Z,101117.52
2017-09-28T14:28:57.410Z,101118.67
2017-09-28T14:31:24.880Z,101122.34
2017-09-28T14:33:52.417Z,101126.82
2017-09-28T14:36:19.912Z,101121.74
2017-09-28T14:38:47.353Z,101116.19
2017-09-28T14:41:14.838Z,101120.41
2017-09-28T14:43:42.303Z,101128.56
2017-09-28T14:46:09.797Z,101122.00
2017-09-28T14:48:37.256Z,101117.78
2017-09-28T14:51:04.707Z,101118.27
2017-09-28T14:53:32.180Z,101118.63
2017-09-28T14:55:59.643Z,101122.05
2017-09-28T14:58:27.280Z,101119.78
2017-09-28T15:00:54.648Z,101127.84
2017-09-28T15:03:22.119Z,101114.02
2017-09-28T15:05:49.565Z,101107.57
2017-09-28T15:08:17.143Z,101109.62
2017-09-28T15:10:44.632Z,101100.95
2017-09-28T15:13:12.193Z,101092.70
2017-09-28T15:15:39.690Z,101092.89
2017-09-28T15:18:07.152Z,101090.34
2017-09-28T15:20:34.710Z,101090.20
2017-09-28T15:23:02.173Z,101090.62
2017-09-28T15:25:29.638Z,101096.08
2017-09-28T15:27:57.086Z,101095.33
2017-09-28T15:30:24.554Z,101092.92
2017-09-28T15:32:51.995Z,101094.56
2017-09-28T15:35:19.477Z,101094.25
2017-09-28T15:37:46.957Z,101097.48
2017-09-28T15:40:14.413Z,101100.39
2017-09-28T15:42:41.891Z,101102.46
2017-09-28T15:45:09.342Z,101112.63
2017-09-28T15:47:36.841Z,101107.66
2017-09-28T15:50:04.766Z,101102.39
2017-09-28T15:52:32.253Z,101102.02
2017-09-28T15:54:59.702Z,101102.31
2017-09-28T15:57:27.276Z,101111.86
2017-09-28T15:59:54.727Z,101108.42
2017-09-28T16:02:22.169Z,101117.35
2017-09-28T16:04:49.660Z,101111.14
2017-09-28T16:07:17.109Z,101105.19
2017-09-28T16:09:44.642Z,101110.08
2017-09-28T16:12:12.102Z,101113.89
2017-09-28T16:14:39.586Z,101113.84
2017-09-28T16:17:07.029Z,101114.11
2017-09-28T16:19:34.497Z,101116.23
2017-09-28T16:22:01.970Z,101126.31
2017-09-28T16:24:29.485Z,101124.40
2017-09-28T16:26:57.010Z,101126.44
2017-09-28T16:29:24.506Z,101124.27
2017-09-28T16:31:51.946Z,101130.98
2017-09-28T16:34:19.505Z,101131.95
2017-09-28T16:36:46.966Z,101133.30
2017-09-28T16:39:14.402Z,101126.41
2017-09-28T16:41:41.864Z,101126.20
2017-09-28T16:44:09.346Z,101119.23
2017-09-28T16:46:36.811Z,101126.58
2017-09-28T16:49:04.263Z,101117.53
2017-09-28T16:51:31.730Z,101115.31
2017-09-28T16:53:59.178Z,101117.74
2017-09-28T16:56:26.660Z,101120.70
2017-09-28T16:58:54.249Z,101116.09
2017-09-28T17:01:21.739Z,101116.04
2017-09-28T17:03:49.181Z,101116.77
2017-09-28T17:06:16.633Z,101118.04
2017-09-28T17:08:44.121Z,101118.86
2017-09-28T17:11:11.690Z,101120.20
2017-09-28T17:13:39.154Z,101120.42
2017-09-28T17:16:06.607Z,101127.27
2017-09-28T17:18:34.107Z,101123.01
2017-09-28T17:21:01.554Z,101128.31
2017-09-28T17:23:29.022Z,101130.80
2017-09-28T17:25:56.461Z,101135.59
2017-09-28T17:28:24.073Z,101139.54
2017-09-28T17:30:51.558Z,101141.27
2017-09-28T17:33:19.045Z,101140.06
2017-09-28T17:35:46.487Z,101142.16
2017-09-28T17:38:14.002Z,101145.98
2017-09-28T17:40:41.740Z,101145.37
2017-09-28T17:43:09.222Z,101145.55
2017-09-28T17:45:36.701Z,101142.76
2017-09-28T17:48:04.150Z,101147.17
2017-09-28T17:50:31.646Z,101149.33
2017-09-28T17:52:59.106Z,101146.20
2017-09-28T17:55:26.570Z,101144.18
2017-09-28T17:57:54.047Z,101147.61
2017-09-28T18:00:21.534Z,101150.88
2017-09-28T18:02:49.002Z,101147.73
2017-09-28T18:05:16.482Z,101148.58
2017-09-28T18:07:43.954Z,101144.30
2017-09-28T18:10:11.686Z,101148.06
2017-09-28T18:12:39.218Z,101151.81
2017-09-28T18:15:06.675Z,101153.99
2017-09-28T18:17:34.171Z,101149.83
2017-09-28T18:20:01.647Z,101150.41
2017-09-28T18:22:29.120Z,101158.55
2017-09-28T18:24:56.565Z,101160.09
2017-09-28T18:27:24.030Z,101160.53
2017-09-28T18:29:52.442Z,101156.30
2017-09-28T18:32:19.919Z,101162.20
2017-09-28T18:34:47.422Z,101158.29
2017-09-28T18:37:14.889Z,101165.06
2017-09-28T18:39:42.329Z,101162.84
2017-09-28T18:42:09.778Z,101165.82
2017-09-28T18:44:37.284Z,101173.93
2017-09-28T18:47:04.726Z,101170.85
2017-09-28T18:49:32.193Z,101165.53
2017-09-28T18:51:59.637Z,101165.94
2017-09-28T18:54:27.112Z,101166.73
2017-09-28T18:56:54.557Z,101155.84
2017-09-28T18:59:23.513Z,101164.64
2017-09-28T19:01:50.960Z,101170.47
2017-09-28T19:04:18.421Z,101173.55
2017-09-28T19:06:45.914Z,101175.30
2017-09-28T19:09:13.388Z,101176.44
2017-09-28T19:11:40.847Z,101173.74
2017-09-28T19:14:08.301Z,101178.53
2017-09-28T19:16:35.762Z,101182.15
2017-09-28T19:19:03.201Z,101190.70
2017-09-28T19:21:30.679Z,101189.42
2017-09-28T19:23:58.139Z,101193.64
2017-09-28T19:26:25.713Z,101198.30
2017-09-28T19:28:53.153Z,101196.88
2017-09-28T19:31:20.633Z,101197.97
2017-09-28T19:33:48.093Z,101192.08
2017-09-28T19:36:15.586Z,101191.23
2017-09-28T19:38:43.049Z,101194.77
2017-09-28T19:41:10.497Z,101194.12
2017-09-28T19:43:37.957Z,101193.46
2017-09-28T19:46:05.397Z,101196.08
2017-09-28T19:48:32.885Z,101186.45
2017-09-28T19:51:00.333Z,101184.22
2017-09-28T19:53:27.802Z,101189.87
2017-09-28T19:55:55.264Z,101180.14
2017-09-28T19:58:22.743Z,101186.26
2017-09-28T20:00:50.296Z,101185.64
2017-09-28T20:03:17.779Z,101176.73
2017-09-28T20:05:45.237Z,101182.45
2017-09-28T20:08:12.691Z,101185.75
2017-09-28T20:10:40.159Z,101188.98
2017-09-28T20:13:07.610Z,101185.72
2017-09-28T20:15:35.078Z,101184.40
2017-09-28T20:18:02.518Z,101186.29
2017-09-28T20:20:29.981Z,101183.22
2017-09-28T20:22:57.426Z,101175.13
2017-09-28T20:25:24.898Z,101179.77
2017-09-28T20:27:52.353Z,101177.16
2017-09-28T20:30:19.810Z,101178.57
2017-09-28T20:32:47.288Z,101168.97
2017-09-28T20:35:14.749Z,101175.46
2017-09-28T20:37:42.204Z,101170.34
2017-09-28T20:40:09.676Z,101173.71
2017-09-28T20:42:37.143Z,101174.05
2017-09-28T20:45:04.589Z,101176.91
2017-09-28T20:47:32.053Z,101179.62
2017-09-28T20:49:59.503Z,101173.67
2017-09-28T20:52:26.970Z,101177.70
2017-09-28T20:54:54.424Z,101176.15
2017-09-28T20:57:21.939Z,101182.09
2017-09-28T20:59:49.405Z,101179.28
2017-09-28T21:02:16.897Z,101180.13
2017-09-28T21:04:44.441Z,101177.48
2017-09-28T21:07:11.910Z,101178.25
2017-09-28T21:09:39.445Z,101173.98
2017-09-28T21:12:06.915Z,101178.89
2017-09-28T21:14:34.396Z,101176.10
2017-09-28T21:17:01.893Z,101170.59
2017-09-28T21:19:29.374Z,101176.64
2017-09-28T21:21:56.819Z,101177.14
2017-09-28T21:24:24.287Z,101179.45
2017-09-28T21:26:51.738Z,101175.53
2017-09-28T21:29:19.205Z,101174.33
2017-09-28T21:31:46.647Z,101172.47
2017-09-28T21:34:14.157Z,101175.06
2017-09-28T21:36:41.607Z,101166.48
2017-09-28T21:39:09.124Z,101170.02
2017-09-28T21:41:36.585Z,101169.58
2017-09-28T21:44:04.038Z,101169.80
2017-09-28T21:46:31.501Z,101178.05
2017-09-28T21:48:58.966Z,101173.55
2017-09-28T21:51:26.440Z,101168.91
2017-09-28T21:53:53.882Z,101172.08
2017-09-28T21:56:21.372Z,101167.62
2017-09-28T21:58:49.363Z,101165.90
2017-09-28T22:01:17.071Z,101169.83
2017-09-28T22:03:44.565Z,101164.97
2017-09-28T22:06:12.035Z,101167.02
2017-09-28T22:08:39.492Z,101164.08
2017-09-28T22:11:06.958Z,101167.48
2017-09-28T22:13:34.440Z,101168.31
2017-09-28T22:16:01.912Z,101160.86
2017-09-28T22:18:29.683Z,101163.42
2017-09-28T22:20:57.137Z,101157.09
2017-09-28T22:23:24.606Z,101165.55
2017-09-28T22:25:52.045Z,101161.66
2017-09-28T22:28:19.510Z,101162.39
2017-09-28T22:30:46.959Z,101163.16
2017-09-28T22:33:14.433Z,101166.42
2017-09-28T22:35:41.885Z,101166.68
2017-09-28T22:38:09.350Z,101159.13
2017-09-28T22:40:36.832Z,101151.91
2017-09-28T22:43:04.343Z,101155.87
2017-09-28T22:45:31.800Z,101155.03
2017-09-28T22:47:59.270Z,101152.45
2017-09-28T22:50:26.768Z,101156.23
2017-09-28T22:52:54.213Z,101152.85
2017-09-28T22:55:21.679Z,101150.84
2017-09-28T22:57:49.133Z,101151.45
2017-09-28T23:00:16.622Z,101150.38
2017-09-28T23:02:44.093Z,101147.80
2017-09-28T23:05:11.566Z,101151.69
2017-09-28T23:07:39.113Z,101148.42
2017-09-28T23:10:06.577Z,101145.44
2017-09-28T23:12:34.036Z,101144.66
2017-09-28T23:15:01.512Z,101142.98
2017-09-28T23:17:28.953Z,101145.44
2017-09-28T23:19:56.506Z,101139.30
2017-09-28T23:22:23.954Z,101137.91
2017-09-28T23:24:51.524Z,101136.07
2017-09-28T23:27:18.985Z,101133.01
2017-09-28T23:29:46.468Z,101132.98
2017-09-28T23:32:13.915Z,101136.55
2017-09-28T23:34:41.379Z,101135.80
2017-09-28T23:37:08.825Z,101135.41
2017-09-28T23:39:36.326Z,101122.48
2017-09-28T23:42:03.765Z,101129.48
2017-09-28T23:44:31.222Z,101126.06
2017-09-28T23:46:58.717Z,101123.61
2017-09-28T23:49:26.161Z,101124.36
2017-09-28T23:51:53.635Z,101128.45
2017-09-28T23:54:21.110Z,101140.80
2017-09-28T23:56:48.569Z,101132.21
2017-09-28T23:59:16.019Z,101131.44
